Terminal Aerodrome Forecast
Issued by NWS

Current Version | Previous Version | Text Only | Print | Product List | Glossary On
Versions: 1 2 3 4 5 6 7 8 9 10 11 12 13 14 15 16 17 18 19 20 21
105
FTUS43 KAPX 252342
TAFPLN
TAF
KPLN 252342Z 2600/2624 11008KT P6SM BKN250
     FM260800 12004KT 6SM -SHRA BR SCT060 OVC090
     FM261100 13005KT 3SM BR VCSH OVC018
     FM261400 18008KT 6SM BR OVC022
     FM261800 19008KT P6SM BKN040=

USA.gov is the U.S. government's official web portal to all federal, state and local government web resources and services.